Data for 09/25/2017

Time Sea-Level Adjusted Pressure Absolute Pressure Temperature Relative Humidity Dew Point   
(mb) (inHg) (mb) (inHg) (C) (F) (%) (C) (F)
00:05 1021 30.15 850 25.1 1.8 35.2 78 -1.6 29.1
00:10 1021 30.15 850 25.1 1.8 35.3 77 -1.7 29
00:15 1021 30.15 850 25.1 1.9 35.5 76 -1.8 28.8
00:20 1021 30.15 850 25.1 2.1 35.7 76 -1.8 28.8
00:25 1021 30.15 850 25.1 2 35.6 76 -1.8 28.8
00:30 1021 30.15 850 25.1 1.9 35.4 76 -1.9 28.7
00:35 1021 30.15 850 25.1 1.8 35.3 77 -1.8 28.7
00:40 1021 30.15 850 25.1 1.6 34.9 77 -2 28.5
00:45 1021 30.15 850 25.1 1.4 34.6 77 -2.2 28.1
00:50 1021 30.15 850 25.1 1.2 34.2 77 -2.3 27.9
00:55 1021 30.15 850 25.1 1 33.7 79 -2.2 28
01:00 1021 30.15 850 25.1 1 33.9 79 -2.3 27.9
01:05 1021 30.15 850 25.1 1.3 34.3 77 -2.2 28
01:10 1021 30.15 850 25.1 1.3 34.4 78 -2.1 28.2
01:15 1021 30.15 850 25.1 1.2 34.1 79 -2.1 28.3
01:20 1021 30.15 850 25.1 1.3 34.3 78 -2.2 28.1
01:25 1021 30.15 850 25.1 1.3 34.3 78 -2.2 28.1
01:30 1021 30.15 850 25.1 1.2 34.1 79 -2.1 28.2
01:35 1021 30.15 850 25.1 1.1 34 78 -2.2 28
01:40 1021 30.15 850 25.1 1.1 34 79 -2.2 28.1
01:45 1021 30.15 850 25.1 1.1 34 78 -2.3 27.8
01:50 1021 30.15 850 25.1 1.1 34 78 -2.3 27.9
01:55 1021 30.15 850 25.1 0.9 33.6 79 -2.4 27.7
02:00 1021 30.15 850 25.1 0.7 33.3 80 -2.4 27.6
02:05 1021 30.15 850 25.1 0.8 33.4 78 -2.7 27.2
02:10 1021 30.15 850 25.1 0.8 33.5 78 -2.6 27.4
02:15 1021 30.15 850 25.1 0.8 33.5 78 -2.6 27.2
02:20 1021 30.15 850 25.1 0.7 33.3 78 -2.6 27.3
02:25 1021 30.15 850 25.1 0.7 33.2 79 -2.5 27.5
02:30 1021 30.15 850 25.1 0.6 33.1 79 -2.5 27.4
02:35 1021 30.15 850 25.1 0.7 33.3 79 -2.5 27.4
02:40 1021 30.15 850 25.1 0.7 33.2 79 -2.6 27.3
02:45 1021 30.15 850 25.1 0.6 33.2 79 -2.7 27.2
02:50 1021 30.15 850 25.1 0.7 33.2 78 -2.8 27
02:55 1021 30.15 850 25.1 0.7 33.3 77 -2.8 27
03:00 1021 30.15 850 25.1 0.7 33.3 78 -2.7 27.1
03:05 1021 30.15 850 25.1 0.6 33.2 78 -2.7 27.2
03:10 1021 30.15 850 25.1 0.5 33 79 -2.8 27
03:15 1021 30.15 850 25.1 0.6 33.1 79 -2.7 27.2
03:20 1021 30.15 850 25.1 0.6 33.2 79 -2.7 27.2
03:25 1021 30.15 850 25.1 0.7 33.2 78 -2.8 27
03:30 1021 30.15 850 25.1 0.7 33.3 78 -2.7 27.2
03:35 1021 30.15 850 25.1 0.8 33.4 78 -2.7 27.2
03:40 1021 30.15 850 25.1 0.6 33.1 78 -2.7 27.1
03:45 1021 30.15 850 25.1 0.5 32.9 79 -2.7 27.1
03:50 1021 30.15 850 25.1 0.5 32.9 79 -2.7 27.1
03:55 1021 30.15 850 25.1 0.3 32.6 79 -2.8 26.9
04:00 1021 30.15 850 25.1 0.3 32.6 79 -2.9 26.7
04:05 1021 30.15 850 25.1 0.6 33 77 -3 26.7
04:10 1021 30.15 850 25.1 0.7 33.2 77 -2.9 26.8
04:15 1021 30.15 850 25.1 0.8 33.5 76 -2.9 26.8
04:20 1021 30.15 850 25.1 0.9 33.7 76 -2.8 27
04:25 1021 30.15 850 25.1 0.9 33.6 76 -2.9 26.9
04:30 1021 30.15 850 25.1 0.7 33.3 76 -3.1 26.5
04:35 1021 30.15 850 25.1 0.9 33.6 75 -3 26.6
04:40 1021 30.15 850 25.1 1 33.8 75 -3 26.7
04:45 1021 30.15 850 25.1 0.7 33.3 76 -3 26.7
04:50 1021 30.15 850 25.1 0.5 33 77 -3 26.6
04:55 1021 30.15 850 25.1 0.6 33.1 76 -3.1 26.5
05:00 1021 30.15 850 25.1 0.7 33.3 76 -3 26.5
05:05 1021 30.15 850 25.1 0.7 33.2 76 -3.1 26.4
05:10 1021 30.15 850 25.1 0.3 32.6 77 -3.2 26.3
05:15 1021 30.15 850 25.1 -0.1 31.8 79 -3.3 26.1
05:20 1021 30.15 850 25.1 -0.2 31.6 79 -3.3 26
05:25 1021 30.15 850 25.1 -0.1 31.8 79 -3.3 26
05:30 1021 30.15 850 25.1 0 32.1 79 -3.2 26.2
05:35 1021 30.15 850 25.1 0.3 32.5 78 -3.2 26.3
05:40 1021 30.15 850 25.1 0 32 79 -3.2 26.3
05:45 1021 30.15 850 25.1 -0.4 31.3 81 -3.3 26
05:50 1021 30.15 850 25.1 -0.5 31 81 -3.4 25.9
05:55 1021 30.15 850 25.1 -0.4 31.3 80 -3.4 25.9
06:00 1021 30.15 850 25.1 0.1 32.2 78 -3.3 26
06:05 1021 30.15 850 25.1 0.5 32.8 77 -3.2 26.3
06:10 1021 30.15 850 25.1 0.7 33.3 75 -3.2 26.3
06:15 1021 30.15 850 25.1 1 33.9 73 -3.3 26.1
06:20 1021 30.15 850 25.1 1.3 34.4 72 -3.2 26.2
06:25 1021 30.15 850 25.1 1 33.8 74 -3.2 26.2
06:30 1021 30.15 851 25.13 0.6 33.2 75 -3.3 26
06:35 1021 30.15 851 25.13 1 33.8 73 -3.4 25.9
06:40 1021 30.15 851 25.13 0.8 33.5 74 -3.2 26.2
06:45 1021 30.15 851 25.13 0.6 33 75 -3.4 25.8
06:50 1021 30.15 850 25.1 0.7 33.3 74 -3.4 25.9
06:55 1021 30.15 850 25.1 0.9 33.6 73 -3.4 25.9
07:00 1021 30.15 851 25.13 0.9 33.5 74 -3.2 26.2
07:05 1021 30.15 851 25.13 0.6 33 75 -3.4 25.9
07:10 1021 30.15 850 25.1 0.7 33.2 74 -3.5 25.7
07:15 1021 30.15 850 25.1 1 33.9 72 -3.5 25.6
07:20 1021 30.15 850 25.1 1.5 34.8 70 -3.4 25.9
07:25 1021 30.15 850 25.1 1.8 35.3 69 -3.2 26.3
07:30 1021 30.15 850 25.1 2.1 35.8 69 -3.1 26.5
07:35 1021 30.15 850 25.1 2.5 36.5 67 -3 26.6
07:40 1021 30.15 850 25.1 2.8 37.1 66 -2.8 26.9
07:45 1021 30.15 850 25.1 2.6 36.7 68 -2.7 27.2
07:50 1021 30.15 850 25.1 3.1 37.6 65 -2.8 27
07:55 1021 30.15 850 25.1 4.2 39.5 62 -2.5 27.4
08:00 1021 30.15 850 25.1 4.6 40.2 59 -2.7 27.2
08:05 1021 30.15 850 25.1 5 41 59 -2.3 27.9
08:10 1021 30.15 850 25.1 5.6 42.2 57 -2.3 27.9
08:15 1021 30.15 850 25.1 6.2 43.1 56 -1.9 28.6
08:20 1021 30.15 850 25.1 6.1 43 58 -1.5 29.3
08:25 1021 30.15 851 25.13 6.1 42.9 56 -1.9 28.5
08:30 1021 30.15 850 25.1 6.6 43.9 53 -2.2 28.1
08:35 1021 30.15 850 25.1 6.6 44 55 -1.6 29
08:40 1021 30.15 850 25.1 7.4 45.4 51 -2 28.4
08:45 1021 30.15 850 25.1 6.9 44.4 52 -2.4 27.8
08:50 1021 30.15 850 25.1 6.4 43.5 52 -2.8 27
08:55 1021 30.15 850 25.1 6.6 43.9 51 -2.8 27
09:00 1021 30.15 850 25.1 7.5 45.5 51 -2.1 28.3
09:05 1021 30.15 850 25.1 8 46.5 47 -2.7 27.1
09:10 1021 30.15 850 25.1 8.3 46.9 46 -2.6 27.3
09:15 1021 30.15 850 25.1 8.1 46.5 47 -2.6 27.3
09:20 1021 30.15 850 25.1 8.5 47.2 45 -2.8 26.9
09:25 1021 30.15 850 25.1 8.7 47.7 44 -2.9 26.7
09:30 1021 30.15 850 25.1 8.9 48 43 -2.8 26.9
09:35 1021 30.15 850 25.1 9.1 48.3 43 -3 26.6
09:40 1021 30.15 850 25.1 9.8 49.7 38 -3.7 25.4
09:45 1021 30.15 850 25.1 9.7 49.5 39 -3.7 25.4
09:50 1021 30.15 850 25.1 10.1 50.1 38 -3.7 25.3
09:55 1021 30.15 850 25.1 10.1 50.2 36 -4.2 24.5
10:00 1021 30.15 850 25.1 10.1 50.3 35 -4.5 23.9
10:05 1021 30.15 850 25.1 9.8 49.6 37 -4.3 24.3
10:10 1021 30.15 850 25.1 10.1 50.2 35 -4.7 23.6
10:15 1021 30.15 850 25.1 10.5 50.8 35 -4.2 24.4
10:20 1021 30.15 850 25.1 10.4 50.7 37 -3.8 25.2
10:25 1021 30.15 850 25.1 10.2 50.3 37 -3.7 25.4
10:30 1021 30.15 850 25.1 10.7 51.3 35 -3.9 24.9
10:35 1021 30.15 850 25.1 11.7 53.1 33 -3.8 25.1
10:40 1021 30.15 850 25.1 12 53.5 33 -3.6 25.6
10:45 1021 30.15 850 25.1 11.8 53.3 34 -3.6 25.5
10:50 1020 30.12 850 25.1 11.6 52.8 34 -3.6 25.4
10:55 1020 30.12 850 25.1 11.9 53.5 35 -3.1 26.4
11:00 1020 30.12 850 25.1 12.4 54.3 33 -3.6 25.6
11:05 1020 30.12 850 25.1 12.7 54.8 32 -3.4 25.8
11:10 1020 30.12 850 25.1 12.6 54.7 33 -3.4 25.9
11:15 1020 30.12 850 25.1 12.1 53.8 33 -3.8 25.2
11:20 1020 30.12 850 25.1 12.1 53.8 32 -3.9 24.9
11:25 1020 30.12 849 25.07 12.2 54 33 -3.7 25.4
11:30 1020 30.12 849 25.07 12.4 54.3 32 -3.6 25.4
11:35 1020 30.12 849 25.07 11.3 52.4 36 -3.3 26
11:40 1020 30.12 849 25.07 12.3 54.1 33 -3.4 25.9
11:45 1020 30.12 849 25.07 12.4 54.3 35 -2.8 27
11:50 1020 30.12 849 25.07 12.4 54.4 34 -2.9 26.8
11:55 1020 30.12 849 25.07 12.3 54.1 33 -3.3 26.1
12:00 1020 30.12 849 25.07 12.5 54.6 34 -2.8 27
12:05 1020 30.12 849 25.07 13.5 56.3 31 -3.4 25.9
12:10 1020 30.12 849 25.07 14 57.3 29 -3.7 25.4
12:15 1020 30.12 849 25.07 13.2 55.8 30 -3.8 25.2
12:20 1020 30.12 849 25.07 13.7 56.7 30 -3.6 25.5
12:25 1020 30.12 849 25.07 13.5 56.3 32 -2.7 27.2
12:30 1020 30.12 849 25.07 12.9 55.2 33 -2.8 27
12:35 1020 30.12 849 25.07 11.8 53.3 34 -3.3 26
12:40 1020 30.12 849 25.07 11.6 52.9 35 -3.1 26.4
12:45 1020 30.12 849 25.07 11.7 53.1 34 -3.6 25.5
12:50 1020 30.12 849 25.07 12.4 54.2 34 -3 26.6
12:55 1020 30.12 849 25.07 12.3 54.1 34 -3 26.5
13:00 1020 30.12 849 25.07 12.6 54.6 32 -3.7 25.3
13:05 1020 30.12 849 25.07 12.8 55.1 30 -4.1 24.7
13:10 1020 30.12 849 25.07 13.2 55.8 28 -4.8 23.4
13:15 1020 30.12 849 25.07 13.4 56.1 29 -4 24.7
13:20 1020 30.12 849 25.07 13.7 56.6 28 -4.4 24.1
13:25 1020 30.12 849 25.07 12.6 54.7 30 -4.3 24.3
13:30 1020 30.12 849 25.07 12.8 55.1 29 -4.6 23.8
13:35 1020 30.12 849 25.07 13.1 55.6 29 -4.5 23.9
13:40 1020 30.12 849 25.07 13.5 56.2 29 -4 24.8
13:45 1020 30.12 849 25.07 13.5 56.3 26 -5.4 22.2
13:50 1020 30.12 849 25.07 13.5 56.3 30 -3.8 25.1
13:55 1020 30.12 849 25.07 13.2 55.8 32 -3.2 26.3
14:00 1020 30.12 849 25.07 12.8 55.1 33 -3.1 26.4
14:05 1020 30.12 849 25.07 13 55.3 32 -3.2 26.2
14:10 1020 30.12 849 25.07 12.6 54.7 35 -2.6 27.3
14:15 1020 30.12 849 25.07 12.1 53.8 34 -3.4 25.9
14:20 1020 30.12 849 25.07 13.2 55.7 30 -4.2 24.5
14:25 1020 30.12 849 25.07 13.9 57.1 30 -3.5 25.7
14:30 1020 30.12 849 25.07 14.3 57.7 28 -3.7 25.3
14:35 1020 30.12 849 25.07 14.5 58.1 28 -3.7 25.4
14:40 1020 30.12 849 25.07 13.8 56.8 29 -3.7 25.4
14:45 1020 30.12 849 25.07 14.6 58.2 28 -3.7 25.3
14:50 1020 30.12 849 25.07 14.6 58.3 27 -3.9 25
14:55 1019 30.09 849 25.07 14.9 58.7 28 -3.4 26
15:00 1020 30.12 849 25.07 14.8 58.6 28 -3.3 26.1
15:05 1020 30.12 849 25.07 14.2 57.5 29 -3.5 25.8
15:10 1020 30.12 849 25.07 13.6 56.4 31 -3.2 26.2
15:15 1020 30.12 849 25.07 13.3 55.9 31 -3.3 26
15:20 1020 30.12 849 25.07 13.3 56 31 -3.6 25.5
15:25 1020 30.12 849 25.07 13.2 55.8 31 -3.3 26.1
15:30 1020 30.12 849 25.07 13.4 56.1 31 -3.5 25.7
15:35 1020 30.12 849 25.07 13.5 56.2 32 -2.8 26.9
15:40 1020 30.12 849 25.07 13.1 55.5 33 -2.7 27.1
15:45 1020 30.12 849 25.07 12.9 55.2 34 -2.6 27.3
15:50 1020 30.12 849 25.07 12.9 55.2 35 -2.2 28
15:55 1020 30.12 849 25.07 13 55.4 35 -2.2 28
16:00 1020 30.12 849 25.07 13 55.3 33 -2.7 27.1
16:05 1020 30.12 849 25.07 12.8 55.1 35 -2.3 27.9
16:10 1020 30.12 849 25.07 12.9 55.3 35 -2.1 28.2
16:15 1020 30.12 849 25.07 12.8 55 35 -2.2 28
16:20 1020 30.12 849 25.07 12.8 55.1 35 -2.3 27.8
16:25 1020 30.12 849 25.07 13.1 55.6 35 -2 28.4
16:30 1020 30.12 849 25.07 12.7 54.8 37 -1.7 29
16:35 1020 30.12 849 25.07 12.8 55.1 36 -1.8 28.7
16:40 1020 30.12 849 25.07 12.7 54.8 36 -1.9 28.6
16:45 1020 30.12 849 25.07 12.6 54.7 38 -1.4 29.4
16:50 1020 30.12 849 25.07 12.6 54.6 38 -1.4 29.4
16:55 1020 30.12 849 25.07 12.4 54.3 37 -1.7 29
17:00 1020 30.12 849 25.07 12.3 54.1 38 -1.6 29.2
17:05 1020 30.12 849 25.07 12.1 53.9 38 -1.7 28.9
17:10 1020 30.12 849 25.07 12 53.6 40 -1.3 29.7
17:15 1020 30.12 849 25.07 12 53.6 40 -1.1 30.1
17:20 1020 30.12 849 25.07 11.8 53.2 41 -1.2 29.9
17:25 1020 30.12 849 25.07 11.6 52.9 42 -1 30.2
17:30 1020 30.12 849 25.07 11.5 52.7 42 -0.8 30.5
17:35 1020 30.12 849 25.07 11.5 52.6 43 -0.5 31
17:40 1020 30.12 849 25.07 11.4 52.4 44 -0.4 31.3
17:45 1020 30.12 849 25.07 11.2 52.2 45 -0.3 31.5
17:50 1020 30.12 849 25.07 11.2 52.2 45 -0.2 31.6
17:55 1020 30.12 849 25.07 11.1 52.1 46 -0.1 31.8
18:00 1020 30.12 849 25.07 11.1 51.9 46 -0.1 31.9
18:05 1020 30.12 849 25.07 11.1 51.9 46 -0 32
18:10 1020 30.12 849 25.07 11 51.8 47 0.2 32.4
18:15 1020 30.12 849 25.07 10.9 51.7 47 0 32.1
18:20 1020 30.12 849 25.07 10.9 51.6 48 0.2 32.4
18:25 1020 30.12 849 25.07 10.9 51.6 48 0.3 32.5
18:30 1020 30.12 849 25.07 10.8 51.5 48 0.3 32.5
18:35 1020 30.12 849 25.07 10.8 51.5 48 0.4 32.7
18:40 1020 30.12 849 25.07 10.8 51.5 48 0.4 32.7
18:45 1020 30.12 849 25.07 10.7 51.3 50 0.7 33.2
18:50 1020 30.12 849 25.07 10.7 51.2 50 0.8 33.5
18:55 1020 30.12 849 25.07 10.6 51 51 0.8 33.4
19:00 1020 30.12 849 25.07 10.5 50.9 51 0.8 33.5
19:05 1020 30.12 849 25.07 10.4 50.7 51 0.8 33.4
19:10 1020 30.12 849 25.07 10.4 50.7 50 0.4 32.6
19:15 1020 30.12 849 25.07 10.4 50.7 50 0.6 33.1
19:20 1020 30.12 849 25.07 10.1 50.2 54 1.2 34.2
19:25 1020 30.12 849 25.07 9.7 49.4 54 0.9 33.6
19:30 1020 30.12 850 25.1 9.7 49.4 54 0.9 33.5
19:35 1020 30.12 850 25.1 9.8 49.6 53 0.7 33.3
19:40 1020 30.12 850 25.1 9.8 49.7 53 0.8 33.5
19:45 1020 30.12 850 25.1 9.8 49.6 54 1 33.8
19:50 1020 30.12 850 25.1 9.5 49.2 56 1.3 34.3
19:55 1020 30.12 850 25.1 9.4 49 57 1.4 34.6
20:00 1020 30.12 850 25.1 9.5 49.1 58 1.6 35
20:05 1021 30.15 850 25.1 9.5 49 58 1.7 35
20:10 1021 30.15 850 25.1 9.5 49.1 58 1.6 34.9
20:15 1021 30.15 850 25.1 9.6 49.2 58 1.8 35.2
20:20 1021 30.15 850 25.1 9.5 49.2 58 1.8 35.3
20:25 1021 30.15 850 25.1 9.5 49.1 59 1.9 35.4
20:30 1021 30.15 850 25.1 9.5 49 60 2.1 35.7
20:35 1021 30.15 850 25.1 9.2 48.5 60 1.9 35.4
20:40 1021 30.15 850 25.1 9.1 48.4 60 1.7 35.1
20:45 1021 30.15 850 25.1 9.1 48.3 60 1.7 35.1
20:50 1021 30.15 850 25.1 8.9 48 61 1.9 35.4
20:55 1021 30.15 850 25.1 8.8 47.8 62 1.9 35.4
21:00 1021 30.15 850 25.1 8.8 47.8 62 1.8 35.3
21:05 1021 30.15 850 25.1 8.9 47.9 61 1.8 35.2
21:10 1021 30.15 850 25.1 8.9 48.1 61 1.8 35.2
21:15 1021 30.15 850 25.1 8.9 48 61 1.7 35.1
21:20 1021 30.15 850 25.1 8.8 47.9 61 1.8 35.2
21:25 1021 30.15 850 25.1 8.8 47.8 62 1.8 35.3
21:30 1021 30.15 850 25.1 8.7 47.7 62 2 35.5
21:35 1021 30.15 850 25.1 8.5 47.4 64 2.1 35.7
21:40 1021 30.15 850 25.1 8.2 46.8 65 2 35.6
21:45 1021 30.15 850 25.1 8 46.4 65 1.9 35.4
21:50 1021 30.15 850 25.1 8 46.4 65 1.9 35.4
21:55 1021 30.15 850 25.1 8 46.4 65 1.9 35.4
22:00 1021 30.15 850 25.1 8.1 46.5 65 1.9 35.4
22:05 1021 30.15 850 25.1 8.1 46.6 65 1.9 35.4
22:10 1021 30.15 850 25.1 8.1 46.6 65 2.1 35.7
22:15 1021 30.15 850 25.1 8.1 46.7 66 2.1 35.8
22:20 1021 30.15 850 25.1 8.2 46.7 64 1.9 35.4
22:25 1021 30.15 850 25.1 8.1 46.5 64 1.6 34.9
22:30 1021 30.15 850 25.1 8.1 46.5 63 1.5 34.7
22:35 1021 30.15 850 25.1 8.1 46.5 64 1.7 35
22:40 1021 30.15 850 25.1 8 46.3 64 1.6 34.8
22:45 1021 30.15 850 25.1 7.9 46.3 65 1.8 35.3
22:50 1021 30.15 850 25.1 7.8 46.1 66 2 35.6
22:55 1021 30.15 850 25.1 7.8 46 66 1.9 35.5
23:00 1021 30.15 850 25.1 7.9 46.2 67 2.1 35.8
23:05 1021 30.15 850 25.1 7.9 46.2 67 2.2 35.9
23:10 1021 30.15 850 25.1 7.9 46.1 67 2.1 35.7
23:15 1021 30.15 850 25.1 7.9 46.2 66 2 35.6
23:20 1021 30.15 850 25.1 8 46.4 66 2.1 35.8
23:25 1021 30.15 850 25.1 8.1 46.5 66 2.1 35.8
23:30 1021 30.15 850 25.1 8 46.3 66 2.1 35.7
23:35 1021 30.15 850 25.1 7.8 46 67 2.2 35.9
23:40 1021 30.15 850 25.1 7.8 46.1 65 1.6 34.8
23:45 1021 30.15 850 25.1 8 46.3 66 1.9 35.5
23:50 1021 30.15 850 25.1 7.9 46.3 66 2 35.5
23:55 1021 30.15 851 25.13 8 46.4 66 2 35.7
24:00 1021 30.15 851 25.13 8 46.4 66 2 35.6